Gregory, SD (57533)

12:56 PM CDT on September 30, 2014 (GMT -0500)
Winner | Change Station
CLOSE
Current Station
Airport
Location: Winner,
Elevation: 619 m
Nearby Weather Stations

Elev 619 m 43.39 °N, 99.84 °W | Updated 1 hour ago

Partly Cloudy
Partly Cloudy
21 °C
Feels Like 21 °C
N
39
Wind Variable Wind from South
Gusts 57 km/h

Today
High -- | Low -- °C
--% Chance of Precip.
Yesterday
High -- | Low -- °C
Precip. -- mm
7:34 AM 7:20 PM
Waxing Crescent, 38% visible
Pressure 1000 hPa
Visibility 16.1 kilometers
Clouds Mostly Cloudy 1676 m
Dew Point 8 °C
Humidity 44%
Rainfall 0.8 mm
Snow Depth 1 in
UV 3 out of 12
Pollen .90 out of 12
Air Quality Not available.
Flu Activity Not available.
METAR KICR 301653Z AUTO 19021G31KT 10SM BKN055 21/08 A2958 RMK AO2 PK WND 18033/1611 SLP005 T02110083

More Conditions Fewer Conditions

Pressure 1000 hPa
Visibility 16.1 kilometers
Clouds Mostly Cloudy 1676 m
Dew Point 8 °C
Humidity 44%
Rainfall 0.8 mm
Snow Depth 1 in
UV 3 out of 12
Pollen .90 out of 12
Air Quality Not available.
Flu Activity Not available.
METAR KICR 301653Z AUTO 19021G31KT 10SM BKN055 21/08 A2958 RMK AO2 PK WND 18033/1611 SLP005 T02110083

More Conditions Fewer Conditions

10-Day Weather Forecast

Almanac

Astronomy

Sep. 30, 2014 Rise Set
Actual Time 7:34 AM CDT 7:20 PM CDT
Civil Twilight 7:05 AM CDT 7:48 PM CDT
Nautical Twilight 6:32 AM CDT 8:21 PM CDT
Astronomical Twilight 5:58 AM CDT 8:55 PM CDT
Moon 1:51 PM CDT 11:45 PM CDT
Length of Visible Light 12h 43m
Length of Day
11h 46m
Tomorrow will be 2m 55s shorter.
Waxing Crescent, 38% of the Moon is Illuminated
Today
Waxing Crescent
Oct 1
First Quarter
Oct 8
Full
Oct 15
Last Quarter
Oct 23
New

Today's Extremes

State Highs State Lows

Community

WunderPhotos

Upload Photos

1,757,693 photos uploaded!

Nearby

Snow Depth

Station Depth Elevation
Blind Park 1 in 6890 ft

Earthquake Activity

City Distance Mag. Time & Date
No recent earthquake activity has been reported nearby.
Minimum magnitude displayed is 2.5.

Coastal Water Temperatures

Place Temperature
No Stations Reporting

Nearby Weather Stations